Tiempo atmosférico en la estación meteorológica de Muñotello, Ávila (1178 m.)



Fecha
DESCASC
Temp. máxima en grados centígrados (hora)
DESCASC
Temp. mínima en grados centígrados (hora)
DESCASC
Temp. media en grados centígrados
DESCASC
Racha de viento máxima en m/sg (hora)
DESCASC
Velocidad máxima media en intervalos de 10 minutos(hora)
DESCASC
Precipitaciones diarias en mm
DESCASC
Precipitaciones de 00:00 a 06:00 en mm
DESCASC
Precipitaciones de 06:00 a 12:00 en mm
DESCASC
Precipitaciones de 12:00 a 18:00 en mm
DESCASC
Precipitaciones de 18:00 a 24:00 en mm
DESCASC
02-04-2020 8.9 (16:10) -0.9 (08:00) 4 7.22 (20:00) 4.44 (16:40) 0 0 0 0 0
01-04-2020 9.8 (16:20) 3.3 (23:59) 6.6 12.78 (13:00) 6.67 (03:00) 0 0 0 0 0
31-03-2020 8.9 (17:40) -1.7 (-00:0) 3.6 13.33 (23:10) 7.5 (15:30) 3.6 0 3 0 0.6
30-03-2020 7.6 (00:00) -1.4 (-00:0) 3.1 6.11 (06:10) 3.61 (05:50) 1.4 0 0 1.4 0
29-03-2020 14 (16:10) 2.6 (00:00) 8.3 7.22 (23:30) 4.17 (23:40) 0 0 0 0 0
28-03-2020 13.1 (15:30) -1.5 (-00:0) 5.8 9.72 (14:10) 5 (13:20) 0 0 0 0 0
27-03-2020 8.3 (13:20) -0.7 (-00:0) 3.8 10 (15:30) 6.39 (16:30) 0 0 0 0 0
26-03-2020 10.9 (14:00) 1.5 (00:00) 6.2 10.56 (00:10) 6.94 (10:50) 0 0 0 0 0
25-03-2020 13.4 (15:20) 1.8 (00:00) 7.6 14.72 (22:50) 8.61 (22:50) 0 0 0 0 0
24-03-2020 13 (15:00) 4.7 (00:00) 8.8 11.67 (01:10) 8.06 (01:10) 0 0 0 0 0
23-03-2020 10.3 (12:50) 3.7 (00:00) 7 14.72 (15:40) 8.89 (15:50) 0 0 0 0 0
22-03-2020 10.9 (13:50) 1.9 (02:30) 6.4 8.06 (15:40) 5 (15:40) 0.8 0 0 0.6 0.2
21-03-2020 8 (13:20) 2 (00:00) 5 11.67 (01:50) 7.78 (02:00) 3.4 1.2 2.2 0 0
20-03-2020 9.8 (14:40) 5.2 (00:00) 7.5 13.33 (15:10) 6.94 (11:50) 0 0 0 0 0
19-03-2020 12.1 (12:10) 6 (00:00) 9.1 11.94 (19:50) 8.33 (20:10) 0 0 0 0 0
18-03-2020 14.8 (15:10) 5.5 (00:00) 10.2 12.5 (13:20) 8.33 (12:50) 0 0 0 0 0
17-03-2020 8.8 (18:40) -2 (-00:0) 3.4 10.83 (21:10) 6.11 (20:30) 9.8 0.2 5.4 4 0.2
16-03-2020 2.3 (00:40) -0.9 (-00:0) 0.7 11.67 (11:10) 8.06 (11:10) 8 0 0.4 6.2 1.4
15-03-2020 17.6 (13:50) 1.9 (00:00) 9.8 16.94 (17:30) 10.28 (17:30) 0.2 0 0 0 0.2
14-03-2020 17.6 (15:40) 4.3 (00:00) 11 4.17 (14:10) 3.33 (20:50) 0 0 0 0 0
13-03-2020 15.6 (15:20) 5.3 (06:30) 10.5 6.39 (17:40) 3.89 (17:40) 0 0 0 0 0
12-03-2020 21.9 (14:50) 9.5 (00:00) 15.7 10.56 (14:00) 6.67 (13:40) 0 0 0 0 0
11-03-2020 23 (14:50) 7.5 (00:00) 15.3 9.44 (16:00) 6.67 (16:30) 0 0 0 0 0
10-03-2020 20.8 (16:30) 4.4 (00:00) 12.6 10 (14:50) 6.94 (14:50) 0 0 0 0 0
09-03-2020 12.9 (15:10) 2.2 (00:00) 7.5 11.94 (00:30) 8.61 (00:40) 0 0 0 0 0
08-03-2020 13.2 (14:00) -2.6 (-00:0) 5.3 12.78 (16:10) 8.61 (16:10) 0.2 0 0 0.2 0
07-03-2020 11.9 (15:10) 0.6 (00:00) 6.2 10.28 (00:30) 6.94 (00:20) 0 0 0 0 0
06-03-2020 6.9 (16:20) 1.9 (00:00) 4.4 21.94 (11:40) 14.17 (12:30) 1.6 0.6 0.8 0.2 0
05-03-2020 11.7 (06:20) 3.5 (00:00) 7.6 20.83 (08:40) 12.22 (13:00) 4.2 0 4.2 0 0

Gráficas

Temp. máximas Temp. mínimas Temp. medias Precipitaciones Rachas de viento máximas Velocidades máximas media en intervalos de 10 minutos

Datos horarios

Fecha y hora oficial Temperatura (ºC) Velocidad del viento (km/h) Dirección del viento Racha (km/h) Dirección de racha Precipitación (mm) Presión (hPa) Tendencia (hPa) Humedad (%)
2020-04-03 23:00:00 6.3 2 Este 8 Oeste 0 -- -- 71
2020-04-03 22:00:00 8.3 3 Sudoeste 12 Sur 0 -- -- 63
2020-04-03 21:00:00 9.5 8 Sur 10 Sur 0 -- -- 58
2020-04-03 20:00:00 11.5 7 Nordeste 18 Este 0 -- -- 50
2020-04-03 19:00:00 12.9 12 Nordeste 18 Nordeste 0 -- -- 48
2020-04-03 18:00:00 13.2 8 Nordeste 18 Nordeste 0 -- -- 48
2020-04-03 17:00:00 13.4 7 Este 16 Nordeste 0 -- -- 49
2020-04-03 16:00:00 12.1 8 Nordeste 18 Nordeste 0 -- -- 53
2020-04-03 15:00:00 11.7 9 Nordeste 17 Nordeste 0 -- -- 56
2020-04-03 14:00:00 10.7 6 Nordeste 23 Nordeste 0 -- -- 55
2020-04-03 13:00:00 9.6 8 Norte 17 Nordeste 0 -- -- 56
2020-04-03 12:00:00 9.4 8 Este 19 Este 0 -- -- 57
2020-04-03 11:00:00 7.7 5 Este 9 Nordeste 0 -- -- 71
2020-04-03 10:00:00 4.4 2 Nordeste 4 Nordeste 0 -- -- 82
2020-04-03 09:00:00 1.7 2 Oeste 4 Oeste 0 -- -- 89
2020-04-03 08:00:00 0.2 0 Calma 4 Noroeste 0 -- -- 91
2020-04-03 07:00:00 1.1 0 Calma 6 Sur 0 -- -- 89
2020-04-03 06:00:00 1.4 0 Calma 4 Sur 0 -- -- 86
2020-04-03 05:00:00 1.7 4 Oeste 10 Sur 0 -- -- 90
2020-04-03 04:00:00 2.4 8 Sur 10 Sur 0 -- -- 86
2020-04-03 03:00:00 2.6 3 Sudoeste 7 Oeste 0 -- -- 90
2020-04-03 02:00:00 3.5 0 Calma 6 Sur 0 -- -- 87
2020-04-03 01:00:00 4.5 5 Sur 7 Sur 0 -- -- 88
2020-04-03 00:00:00 5.1 4 Este 12 Este 0 -- -- 86
2020-04-02 23:00:00 6 3 Sudeste 6 Sudeste 0 -- -- 84
2020-04-02 22:00:00 6.1 3 Sur 10 Sur 0 -- -- 83
2020-04-02 21:00:00 6 3 Sur 23 Norte 0 -- -- 86
2020-04-02 20:00:00 7.4 7 Noroeste 26 Norte 0 -- -- 80
2020-04-02 19:00:00 7.6 3 Sudeste 15 Este 0 -- -- 78
2020-04-02 18:00:00 7.7 3 Nordeste 20 Norte 0 -- -- 74
2020-04-02 17:00:00 7.7 14 Norte 23 Norte 0 -- -- 78
2020-04-02 16:00:00 8.8 4 Sudeste 12 Este 0 -- -- 68
2020-04-02 15:00:00 8.6 3 Sudeste 8 Este 0 -- -- 68
2020-04-02 14:00:00 7.5 2 Oeste 13 Nordeste 0 -- -- 74
2020-04-02 13:00:00 6.9 4 Nordeste 13 Nordeste 0 -- -- 74
2020-04-02 12:00:00 7 8 Este 14 Este 0 -- -- 75
2020-04-02 11:00:00 5.3 5 Nordeste 10 Este 0 -- -- 79
2020-04-02 10:00:00 3.2 2 Nordeste 9 Este 0 -- -- 81
2020-04-02 09:00:00 -0.2 2 Oeste 4 Sudoeste 0 -- -- 90
2020-04-02 08:00:00 -0.9 0 Calma 6 Sur 0 -- -- 85
2020-04-02 07:00:00 0.7 5 Sur 8 Sur 0 -- -- 86
2020-04-02 06:00:00 0.9 2 Sur 11 Sur 0 -- -- 81
2020-04-02 05:00:00 1.1 6 Oeste 12 Sudoeste 0 -- -- 82
2020-04-02 04:00:00 0.4 5 Sur 11 Sur 0 -- -- 85
2020-04-02 03:00:00 1.7 2 Sur 11 Sur 0 -- -- 80
2020-04-02 02:00:00 2 4 Sur 11 Sudoeste 0 -- -- 78
2020-04-02 01:00:00 1.2 5 Sudoeste 12 Norte 0 -- -- 82
2020-04-02 00:00:00 3.3 10 Sur 13 Sur 0 -- -- 69
2020-04-01 23:00:00 3.6 9 Sur 12 Sudoeste 0 -- -- 69
2020-04-01 22:00:00 4.2 3 Oeste 14 Sur 0 -- -- 67
2020-04-01 21:00:00 5.6 5 Sudoeste 17 Oeste 0 -- -- 63
2020-04-01 20:00:00 7.7 10 Oeste 25 Oeste 0 -- -- 58
2020-04-01 19:00:00 8.3 13 Sur 28 Sur 0 -- -- 56
2020-04-01 18:00:00 9.5 16 Sur 35 Sur 0 -- -- 54
2020-04-01 17:00:00 9.3 20 Sudeste 37 Este 0 -- -- 53
2020-04-01 16:00:00 9.6 19 Sur 32 Sudeste 0 -- -- 51
2020-04-01 15:00:00 8.8 17 Sudeste 31 Sudeste 0 -- -- 57
2020-04-01 14:00:00 8.5 14 Sudeste 31 Sudeste 0 -- -- 55
2020-04-01 13:00:00 7.6 18 Sur 46 Sur 0 -- -- 60
2020-04-01 12:00:00 8.4 9 Sudeste 25 Sudeste 0 -- -- 61
2020-04-01 11:00:00 7 13 Sudeste 24 Este 0 -- -- 72
2020-04-01 10:00:00 4.7 3 Noroeste 10 Noroeste 0 -- -- 81
2020-04-01 09:00:00 4.3 6 Nordeste 21 Sudeste 0 -- -- 83
2020-04-01 08:00:00 3.6 17 Este 26 Sudeste 0 -- -- 79
2020-04-01 07:00:00 4.1 8 Sudoeste 19 Sudeste 0 -- -- 79
2020-04-01 06:00:00 4.5 6 Este 34 Nordeste 0 -- -- 76
2020-04-01 05:00:00 5.3 13 Sudeste 31 Sur 0 -- -- 71
2020-04-01 04:00:00 5.5 12 Este 45 Sudeste 0 -- -- 74
2020-04-01 03:00:00 5.9 24 Sudeste 46 Sudeste 0 -- -- 72
2020-04-01 02:00:00 5.4 11 Este 23 Nordeste 0 -- -- 78
2020-04-01 01:00:00 5.7 14 Sudeste 34 Sur 0 -- -- 75
2020-04-01 00:00:00 6.1 8 Norte 48 Sur 0 -- -- 74
2020-03-31 23:00:00 5.2 13 Sudeste 33 Este 0 -- -- 79
2020-03-31 22:00:00 5 10 Este 23 Sudeste 0 -- -- 82
2020-03-31 21:00:00 5.2 13 Este 26 Nordeste 0.2 -- -- 80
2020-03-31 20:00:00 4.9 6 Norte 28 Sudeste 0.4 -- -- 83
2020-03-31 19:00:00 6.8 7 Sudeste 26 Sudeste 0 -- -- 77
2020-03-31 18:00:00 8.5 16 Sudeste 42 Sudeste 0 -- -- 73
2020-03-31 17:00:00 8.5 16 Sudeste 35 Sur 0 -- -- 73
2020-03-31 16:00:00 8.4 14 Sudeste 41 Sur 0 -- -- 74
2020-03-31 15:00:00 6 2 Sudeste 20 Norte 0 -- -- 82
2020-03-31 14:00:00 4.4 8 Nordeste 18 Este 0 -- -- 85
2020-03-31 13:00:00 4.2 9 Este 21 Este 0 -- -- 79
2020-03-31 12:00:00 4 15 Este 28 Sudeste 1.2 -- -- 82
2020-03-31 11:00:00 2.5 9 Norte 18 Nordeste 1.8 -- -- 87
2020-03-31 10:00:00 1.1 4 Nordeste 8 Nordeste 0 -- -- 90
2020-03-31 09:00:00 -0.2 5 Este 12 Este 0 -- -- 96
2020-03-31 08:00:00 -1.2 5 Este 14 Este 0 -- -- 96
2020-03-31 07:00:00 -1.5 6 Este 15 Este 0 -- -- 96
2020-03-31 06:00:00 -1.6 10 Este 18 Este 0 -- -- 96
2020-03-31 05:00:00 -1.6 9 Este 16 Este 0 -- -- 95
2020-03-31 04:00:00 -1.6 6 Este 18 Este 0 -- -- 95
2020-03-31 03:00:00 -1.5 10 Este 15 Este 0 -- -- 94
2020-03-31 02:00:00 -1.4 8 Este 13 Este 0 -- -- 94
2020-03-31 01:00:00 -1.5 5 Este 12 Este 0 -- -- 93
2020-03-31 00:00:00 -1.3 8 Este 17 Este 0 -- -- 93
2020-03-30 23:00:00 -1.4 9 Sudeste 17 Sudeste 0 -- -- 92
2020-03-30 22:00:00 -1.3 10 Sudeste 16 Sudeste 0 -- -- 92
2020-03-30 21:00:00 -1.3 8 Sudeste 17 Sudeste 0 -- -- 91
2020-03-30 20:00:00 -0.9 8 Este 15 Este 0 -- -- 93
2020-03-30 19:00:00 -0.6 9 Este 13 Este 0 -- -- 91
2020-03-30 18:00:00 -0.3 8 Sudeste 15 Sudeste 0.4 -- -- 88
2020-03-30 17:00:00 -0.2 8 Este 15 Este 0.2 -- -- 85
2020-03-30 16:00:00 0.1 6 Este 14 Nordeste 0.4 -- -- 86
2020-03-30 15:00:00 -0.8 6 Nordeste 14 Nordeste 0 -- -- 91
2020-03-30 14:00:00 0.4 8 Este 15 Este 0.4 -- -- 80
2020-03-30 13:00:00 -0.1 7 Este 14 Nordeste 0 -- -- 87
2020-03-30 12:00:00 -0.4 6 Nordeste 15 Nordeste 0 -- -- 88
2020-03-30 11:00:00 0.4 11 Nordeste 18 Nordeste 0 -- -- 81
2020-03-30 10:00:00 0.3 10 Nordeste 18 Nordeste 0 -- -- 87
2020-03-30 09:00:00 0.7 8 Este 17 Nordeste 0 -- -- 84
2020-03-30 08:00:00 0.8 11 Nordeste 19 Nordeste 0 -- -- 84
2020-03-30 07:00:00 1.9 10 Este 22 Nordeste 0 -- -- 86
2020-03-30 06:00:00 2.3 12 Nordeste 21 Nordeste 0 -- -- 86
2020-03-30 05:00:00 2.9 8 Nordeste 14 Nordeste 0 -- -- 86
2020-03-30 04:00:00 4 9 Este 15 Sudeste 0 -- -- 79
2020-03-30 03:00:00 4.6 6 Este 13 Este 0 -- -- 74
2020-03-30 02:00:00 5.7 6 Este 9 Este 0 -- -- 68
2020-03-30 01:00:00 6.7 6 Este 15 Sudeste 0 -- -- 63
2020-03-30 00:00:00 7.6 9 Sudeste 26 Nordeste 0 -- -- 60
2020-03-29 23:00:00 9.7 2 Sur 6 Sudoeste 0 -- -- 53
2020-03-29 22:00:00 9.8 0 Calma 8 Sur 0 -- -- 52
2020-03-29 21:00:00 10.4 0 Calma 13 Norte 0 -- -- 53
2020-03-29 20:00:00 11 8 Norte 19 Noroeste 0 -- -- 52
2020-03-29 19:00:00 12 12 Noroeste 22 Norte 0 -- -- 49
2020-03-29 18:00:00 12.9 4 Norte 14 Norte 0 -- -- 46
2020-03-29 17:00:00 13.8 4 Norte 16 Noroeste 0 -- -- 43
2020-03-29 16:00:00 13.4 8 Nordeste 21 Nordeste 0 -- -- 44
2020-03-29 15:00:00 12.9 6 Norte 19 Nordeste 0 -- -- 44
2020-03-29 14:00:00 13 8 Norte 16 Norte 0 -- -- 46
2020-03-29 13:00:00 12.9 3 Norte 14 Nordeste 0 -- -- 45
2020-03-29 12:00:00 11.5 4 Norte 17 Oeste 0 -- -- 48
2020-03-29 11:00:00 10.1 11 Oeste 18 Oeste 0 -- -- 54
2020-03-29 10:00:00 8.3 9 Oeste 14 Oeste 0 -- -- 61
2020-03-29 09:00:00 5.3 3 Sur 10 Sur 0 -- -- 64
2020-03-29 08:00:00 3.7 6 Sudoeste 9 Sudoeste 0 -- -- 68
2020-03-29 07:00:00 3.5 3 Sudoeste 9 Sudoeste 0 -- -- 68
2020-03-29 06:00:00 4.3 5 Sur 10 Sur 0 -- -- 65
2020-03-29 05:00:00 3.7 4 Sur 6 Sur 0 -- -- 68
2020-03-29 03:00:00 3.9 3 Sudoeste 9 Sur 0 -- -- 68
2020-03-29 01:00:00 3.7 6 Sur 9 Oeste 0 -- -- 69
2020-03-29 00:00:00 4.8 6 Sur 8 Sur 0 -- -- 65
2020-03-28 23:00:00 5.7 6 Sudoeste 10 Sur 0 -- -- 60
2020-03-28 22:00:00 6.1 7 Sudoeste 12 Sudoeste 0 -- -- 59
2020-03-28 21:00:00 7.1 7 Oeste 21 Sudeste 0 -- -- 55
2020-03-28 20:00:00 8.8 16 Sudeste 22 Sur 0 -- -- 50
2020-03-28 19:00:00 10.2 9 Sur 21 Sudeste 0 -- -- 44
2020-03-28 18:00:00 11.9 11 Sudeste 23 Este 0 -- -- 39
2020-03-28 17:00:00 12.7 14 Sudeste 28 Nordeste 0 -- -- 38
2020-03-28 16:00:00 12.9 10 Este 23 Sudeste 0 -- -- 36
2020-03-28 15:00:00 12.8 15 Este 35 Norte 0 -- -- 30
2020-03-28 14:00:00 11.9 14 Nordeste 32 Nordeste 0 -- -- 40
2020-03-28 13:00:00 10.7 11 Nordeste 25 Este 0 -- -- 40
2020-03-28 12:00:00 9.6 17 Nordeste 27 Nordeste 0 -- -- 46
2020-03-28 11:00:00 7.7 7 Este 12 Este 0 -- -- 58
2020-03-28 10:00:00 4.6 4 Nordeste 9 Nordeste 0 -- -- 73
2020-03-28 09:00:00 2.7 2 Este 4 Nordeste 0 -- -- 80
2020-03-28 08:00:00 0 2 Sudeste 6 Sur 0 -- -- 86
2020-03-28 07:00:00 -1.4 0 Calma 8 Sur 0 -- -- 91
2020-03-28 06:00:00 -1 4 Sur 6 Sur 0 -- -- 90
2020-03-28 05:00:00 -1 0 Calma 8 Sur 0 -- -- 89
2020-03-28 04:00:00 -0.1 6 Sur 9 Sur 0 -- -- 86
2020-03-28 03:00:00 0.1 5 Sur 9 Sur 0 -- -- 85
2020-03-28 02:00:00 0 6 Sur 8 Sur 0 -- -- 84
2020-03-28 01:00:00 0.6 4 Sur 6 Sur 0 -- -- 77
2020-03-28 00:00:00 0.7 6 Oeste 7 Oeste 0 -- -- 75
2020-03-27 23:00:00 1.4 3 Sur 6 Sur 0 -- -- 72
2020-03-27 22:00:00 1.6 0 Calma 6 Sudeste 0 -- -- 71
2020-03-27 21:00:00 2.4 3 Nordeste 21 Sudeste 0 -- -- 65
2020-03-27 20:00:00 3.6 9 Sudeste 26 Este 0 -- -- 58
2020-03-27 19:00:00 5.2 16 Este 31 Este 0 -- -- 60
2020-03-27 18:00:00 6.5 19 Nordeste 33 Sudeste 0 -- -- 56
2020-03-27 17:00:00 7.1 21 Sudeste 33 Este 0 -- -- 51
2020-03-27 16:00:00 7.3 21 Este 36 Este 0 -- -- 49
2020-03-27 15:00:00 7 20 Este 33 Este 0 -- -- 40
2020-03-27 14:00:00 6.9 20 Este 33 Sudeste 0 -- -- 47
2020-03-27 13:00:00 7.7 13 Sudeste 31 Este 0 -- -- 44
2020-03-27 12:00:00 6.7 17 Este 32 Este 0 -- -- 51
2020-03-27 11:00:00 5.2 12 Nordeste 20 Nordeste 0 -- -- 65
2020-03-27 10:00:00 3.3 7 Nordeste 13 Nordeste 0 -- -- 73
2020-03-27 09:00:00 1.5 6 Nordeste 10 Nordeste 0 -- -- 76
2020-03-27 08:00:00 0.1 2 Sudeste 8 Nordeste 0 -- -- 79
2020-03-27 07:00:00 0.2 4 Nordeste 13 Este 0 -- -- 79
2020-03-27 06:00:00 0.4 6 Este 11 Este 0 -- -- 81
2020-03-27 05:00:00 -0.2 0 Calma 6 Sur 0 -- -- 84
2020-03-27 04:00:00 0.1 6 Sudeste 9 Este 0 -- -- 81
2020-03-27 03:00:00 1.4 8 Este 16 Este 0 -- -- 76
2020-03-27 02:00:00 1.2 10 Sudeste 18 Sudeste 0 -- -- 77
2020-03-27 01:00:00 0.8 3 Sudeste 8 Sudeste 0 -- -- 76
2020-03-27 00:00:00 2.3 2 Sudeste 6 Sur 0 -- -- 69
2020-03-26 23:00:00 2.2 2 Este 5 Este 0 -- -- 68
2020-03-26 22:00:00 3.9 2 Sur 13 Sur 0 -- -- 60
2020-03-26 21:00:00 5.2 9 Sur 13 Sur 0 -- -- 54
2020-03-26 20:00:00 6.5 4 Oeste 10 Noroeste 0 -- -- 51
2020-03-26 19:00:00 8.9 7 Noroeste 24 Oeste 0 -- -- 45
2020-03-26 18:00:00 10 14 Noroeste 27 Oeste 0 -- -- 40
2020-03-26 17:00:00 10.4 17 Noroeste 31 Oeste 0 -- -- 34
2020-03-26 16:00:00 10.8 18 Noroeste 31 Noroeste 0 -- -- 34
2020-03-26 15:00:00 10.7 17 Noroeste 31 Noroeste 0 -- -- 36
2020-03-26 14:00:00 10.9 19 Noroeste 35 Oeste 0 -- -- 31
2020-03-26 13:00:00 10.5 17 Noroeste 32 Noroeste 0 -- -- 37
2020-03-26 12:00:00 9.8 22 Oeste 33 Noroeste 0 -- -- 37
2020-03-26 11:00:00 8.9 25 Noroeste 36 Oeste 0 -- -- 30
2020-03-26 10:00:00 7.9 19 Oeste 30 Oeste 0 -- -- 36
2020-03-26 09:00:00 3.5 3 Oeste 5 Noroeste 0 -- -- 81
2020-03-26 08:00:00 1.5 3 Noroeste 6 Sudoeste 0 -- -- 80
2020-03-26 07:00:00 1.9 2 Sudoeste 6 Sudoeste 0 -- -- 76
2020-03-26 06:00:00 2.2 0 Calma 14 Oeste 0 -- -- 74
2020-03-26 05:00:00 2.9 7 Oeste 14 Oeste 0 -- -- 69
2020-03-26 04:00:00 3.7 10 Oeste 18 Oeste 0 -- -- 82
2020-03-26 03:00:00 5 14 Oeste 22 Oeste 0 -- -- 82
2020-03-26 02:00:00 6.7 17 Oeste 32 Oeste 0 -- -- 79
2020-03-26 01:00:00 7.5 18 Oeste 38 Oeste 0 -- -- 74
2020-03-26 00:00:00 8.7 24 Oeste 46 Oeste 0 -- -- 74
2020-03-25 23:00:00 9.4 24 Oeste 53 Sudoeste 0 -- -- 73
2020-03-25 22:00:00 8.8 17 Oeste 28 Oeste 0 -- -- 70
2020-03-25 21:00:00 9.1 15 Oeste 30 Oeste 0 -- -- 65
2020-03-25 20:00:00 8.9 15 Oeste 31 Oeste 0 -- -- 66
2020-03-25 19:00:00 9.8 16 Oeste 29 Oeste 0 -- -- 64
2020-03-25 18:00:00 11.3 23 Oeste 36 Noroeste 0 -- -- 64
2020-03-25 17:00:00 12.7 17 Oeste 34 Oeste 0 -- -- 55
2020-03-25 16:00:00 12.7 27 Noroeste 35 Noroeste 0 -- -- 51
2020-03-25 15:00:00 12.7 23 Noroeste 37 Noroeste 0 -- -- 60
2020-03-25 14:00:00 11.3 15 Noroeste 28 Noroeste 0 -- -- 62
2020-03-25 13:00:00 11 18 Noroeste 27 Oeste 0 -- -- 63
2020-03-25 12:00:00 10.6 15 Oeste 25 Noroeste 0 -- -- 65
2020-03-25 11:00:00 10.2 10 Oeste 25 Oeste 0 -- -- 66
2020-03-25 10:00:00 8.8 16 Oeste 31 Oeste 0 -- -- 72
2020-03-25 09:00:00 7.5 22 Oeste 31 Oeste 0 -- -- 80
2020-03-25 08:00:00 5.2 14 Oeste 19 Oeste 0 -- -- 92
2020-03-25 07:00:00 2.8 6 Sur 10 Sur 0 -- -- 91
2020-03-25 06:00:00 2.6 0 Calma 9 Sur 0 -- -- 90
2020-03-25 05:00:00 1.8 0 Calma 9 Sur 0 -- -- 91
2020-03-25 04:00:00 3.9 8 Sur 9 Sur 0 -- -- 84
2020-03-25 03:00:00 3.8 6 Oeste 10 Oeste 0 -- -- 88
2020-03-25 02:00:00 4.2 5 Oeste 10 Oeste 0 -- -- 87
2020-03-25 01:00:00 5 5 Oeste 9 Oeste 0 -- -- 83
2020-03-25 00:00:00 5.4 5 Oeste 8 Oeste 0 -- -- 82
2020-03-24 23:00:00 6.5 3 Noroeste 7 Sur 0 -- -- 79
2020-03-24 22:00:00 6.9 0 Calma 9 Noroeste 0 -- -- 80
2020-03-24 21:00:00 8 0 Calma 10 Sudoeste 0 -- -- 75
2020-03-24 20:00:00 8.4 5 Oeste 9 Sudoeste 0 -- -- 73
2020-03-24 19:00:00 9.1 6 Norte 13 Sudeste 0 -- -- 75
2020-03-24 18:00:00 10.8 7 Sudeste 23 Este 0 -- -- 61
2020-03-24 17:00:00 11.4 13 Este 25 Este 0 -- -- 56
2020-03-24 16:00:00 11.7 13 Este 31 Este 0 -- -- 56
2020-03-24 15:00:00 13 20 Este 36 Este 0 -- -- 55
2020-03-24 14:00:00 10.7 19 Este 37 Este 0 -- -- 62
2020-03-24 13:00:00 11 20 Nordeste 39 Este 0 -- -- 65
2020-03-24 12:00:00 8.9 20 Este 28 Este 0 -- -- 70
2020-03-24 11:00:00 7.4 19 Este 33 Este 0 -- -- 76
2020-03-24 10:00:00 8 19 Nordeste 32 Este 0 -- -- 75
2020-03-24 09:00:00 5.6 5 Este 20 Nordeste 0 -- -- 88
2020-03-24 08:00:00 4.8 4 Sudeste 11 Este 0 -- -- 91
2020-03-24 07:00:00 5 3 Nordeste 14 Este 0 -- -- 89
2020-03-24 06:00:00 5.6 11 Sudeste 18 Sudeste 0 -- -- 87
2020-03-24 05:00:00 5.3 9 Este 22 Este 0 -- -- 85
2020-03-24 04:00:00 6.7 23 Este 36 Este 0 -- -- 77
2020-03-24 03:00:00 6.6 12 Este 38 Este 0 -- -- 80
2020-03-24 02:00:00 6.7 22 Sudeste 42 Sudeste 0 -- -- 80
2020-03-24 01:00:00 7.1 26 Sudeste 40 Sudeste 0 -- -- 79
2020-03-24 00:00:00 6.4 14 Este 24 Este 0 -- -- 88
2020-03-23 23:00:00 6.7 9 Este 22 Este 0 -- -- 83
2020-03-23 22:00:00 6.4 10 Nordeste 27 Nordeste 0 -- -- 82
2020-03-23 21:00:00 6.6 11 Este 28 Este 0 -- -- 78
2020-03-23 20:00:00 7 8 Este 36 Este 0 -- -- 72
2020-03-23 19:00:00 9.5 18 Este 33 Sudeste 0 -- -- 66
2020-03-23 18:00:00 9.7 18 Este 35 Nordeste 0 -- -- 65
2020-03-23 17:00:00 10.1 15 Este 41 Sur 0 -- -- 59
2020-03-23 16:00:00 8.7 23 Sudeste 53 Sudeste 0 -- -- 66
2020-03-23 15:00:00 9.2 20 Este 36 Nordeste 0 -- -- 66
2020-03-23 14:00:00 9 19 Este 36 Este 0 -- -- 69
2020-03-23 13:00:00 9.6 19 Nordeste 31 Este 0 -- -- 70
2020-03-23 12:00:00 8.8 19 Este 30 Nordeste 0 -- -- 74
2020-03-23 11:00:00 7.1 12 Este 21 Este 0 -- -- 83
2020-03-23 10:00:00 6.3 7 Este 14 Este 0 -- -- 85
2020-03-23 09:00:00 5.4 6 Nordeste 15 Este 0 -- -- 90
2020-03-23 08:00:00 4.2 3 Sudeste 5 Este 0 -- -- 94
2020-03-23 07:00:00 3.9 0 Calma 5 Norte 0 -- -- 94
2020-03-23 06:00:00 4.1 0 Calma 10 Sur 0 -- -- 93
2020-03-23 05:00:00 3.8 3 Sur 6 Sur 0 -- -- 93
2020-03-23 04:00:00 4.3 0 Calma 8 Norte 0 -- -- 92
2020-03-23 03:00:00 4.8 3 Este 8 Nordeste 0 -- -- 92
2020-03-23 02:00:00 5.5 3 Nordeste 7 Nordeste 0 -- -- 91
2020-03-23 01:00:00 5.5 2 Sudeste 6 Sudeste 0 -- -- 89
2020-03-23 00:00:00 5.9 2 Sudeste 22 Sudeste 0 -- -- 86
2020-03-22 23:00:00 6.3 14 Sudeste 21 Sudeste 0 -- -- 83
2020-03-22 22:00:00 6.3 6 Sudeste 10 Sudeste 0 -- -- 87
2020-03-22 21:00:00 6.4 0 Calma 5 Sur 0 -- -- 86
2020-03-22 20:00:00 6.6 4 Oeste 5 Oeste 0 -- -- 87
2020-03-22 19:00:00 6.9 6 Sudeste 15 Este 0.2 -- -- 80
2020-03-22 18:00:00 7.5 3 Este 10 Nordeste 0.4 -- -- 83
2020-03-22 17:00:00 7.8 4 Este 21 Nordeste 0.2 -- -- 81
2020-03-22 16:00:00 9.3 14 Nordeste 29 Nordeste 0 -- -- 68
2020-03-22 15:00:00 10.3 9 Nordeste 20 Este 0 -- -- 60
2020-03-22 14:00:00 10.7 6 Este 17 Este 0 -- -- 57
2020-03-22 13:00:00 9.5 10 Nordeste 18 Nordeste 0 -- -- 60
2020-03-22 12:00:00 9.1 6 Este 14 Este 0 -- -- 63
2020-03-22 11:00:00 7.2 8 Este 14 Este 0 -- -- 77
2020-03-22 10:00:00 5.1 0 Calma 7 Norte 0 -- -- 85
2020-03-22 09:00:00 4.2 0 Calma 5 Sur 0 -- -- 86
2020-03-22 08:00:00 2.2 0 Calma 5 Sur 0 -- -- 89
2020-03-22 07:00:00 2.6 2 Sur 4 Sur 0 -- -- 88
2020-03-22 06:00:00 2 0 Calma 6 Oeste 0 -- -- 90
2020-03-22 05:00:00 2.1 5 Oeste 6 Sur 0 -- -- 88
2020-03-22 04:00:00 2.3 3 Sur 5 Sur 0 -- -- 89
2020-03-22 03:00:00 2.2 0 Calma 8 Oeste 0 -- -- 89
2020-03-22 02:00:00 2.5 0 Calma 6 Sur 0 -- -- 88
2020-03-22 01:00:00 2.3 3 Oeste 6 Norte 0 -- -- 89
2020-03-22 00:00:00 2.8 4 Oeste 9 Oeste 0 -- -- 85
2020-03-21 23:00:00 2.2 2 Sur 10 Oeste 0 -- -- 84
2020-03-21 22:00:00 3.5 10 Oeste 13 Oeste 0 -- -- 80
2020-03-21 21:00:00 4.9 8 Sudoeste 22 Sur 0 -- -- 74
2020-03-21 20:00:00 5.6 8 Sur 18 Sur 0 -- -- 69
2020-03-21 19:00:00 6.4 13 Sur 33 Sur 0 -- -- 67
2020-03-21 18:00:00 7.1 22 Sur 36 Sudeste 0 -- -- 68
2020-03-21 17:00:00 6.7 21 Sudeste 34 Sur 0 -- -- 68
2020-03-21 16:00:00 7.6 12 Sudoeste 36 Sur 0 -- -- 62
2020-03-21 15:00:00 7.1 18 Sur 34 Sur 0 -- -- 71
2020-03-21 14:00:00 7.2 16 Sur 28 Sur 0 -- -- 75
2020-03-21 13:00:00 7.3 12 Este 26 Este 0 -- -- 79
2020-03-21 12:00:00 6.4 14 Este 24 Este 0 -- -- 84
2020-03-21 11:00:00 5.5 12 Sudeste 25 Sudeste 0.8 -- -- 85
2020-03-21 10:00:00 5.3 14 Este 34 Este 0.6 -- -- 84
2020-03-21 09:00:00 5.7 18 Sudeste 30 Sudeste 0.4 -- -- 85
2020-03-21 08:00:00 5.1 10 Este 24 Este 0.4 -- -- 95
2020-03-21 07:00:00 4.9 13 Este 37 Sudeste 0 -- -- 95
2020-03-21 06:00:00 5 21 Sudeste 30 Sudeste 0.2 -- -- 94
2020-03-21 05:00:00 5.2 17 Este 28 Este 0.4 -- -- 93
2020-03-21 04:00:00 5.3 20 Este 32 Este 0.4 -- -- 93
2020-03-21 03:00:00 5.7 19 Este 35 Este 0.2 -- -- 91
2020-03-21 02:00:00 6.6 28 Este 42 Este 0 -- -- 86
2020-03-21 01:00:00 6.8 24 Este 37 Este 0 -- -- 86
2020-03-21 00:00:00 7.1 19 Este 34 Este 0 -- -- 85
2020-03-20 23:00:00 7.4 16 Este 31 Este 0 -- -- 84
2020-03-20 22:00:00 7.7 15 Este 33 Este 0 -- -- 82
2020-03-20 21:00:00 7.9 18 Este 30 Nordeste 0 -- -- 81
2020-03-20 20:00:00 7.8 16 Este 29 Este 0 -- -- 83
2020-03-20 19:00:00 8.1 18 Este 32 Sudeste 0 -- -- 81
2020-03-20 18:00:00 8.3 19 Este 32 Sudeste 0 -- -- 82
2020-03-20 17:00:00 8.9 21 Sudeste 33 Sudeste 0 -- -- 79
2020-03-20 16:00:00 8.5 14 Este 48 Sudeste 0 -- -- 82
2020-03-20 15:00:00 9.1 25 Sudeste 40 Sudeste 0 -- -- 78
2020-03-20 14:00:00 9.3 17 Este 33 Este 0 -- -- 79
2020-03-20 13:00:00 8.7 10 Este 35 Este 0 -- -- 78
2020-03-20 12:00:00 9 14 Sudeste 37 Sudeste 0 -- -- 78
2020-03-20 11:00:00 8.6 18 Sudeste 36 Este 0 -- -- 78
2020-03-20 10:00:00 8.5 17 Este 28 Este 0 -- -- 80
2020-03-20 09:00:00 6.6 8 Este 18 Sudeste 0 -- -- 91
2020-03-20 08:00:00 5.3 7 Noroeste 14 Noroeste 0 -- -- 93
2020-03-20 07:00:00 6 10 Sudeste 24 Este 0 -- -- 93
2020-03-20 06:00:00 6 2 Este 31 Sudeste 0 -- -- 89
2020-03-20 05:00:00 6.7 5 Noroeste 24 Sur 0 -- -- 85
2020-03-20 04:00:00 6.7 6 Sudeste 18 Sudoeste 0 -- -- 85
2020-03-20 03:00:00 5.8 4 Noroeste 9 Oeste 0 -- -- 89
2020-03-20 02:00:00 6.5 3 Noroeste 13 Norte 0 -- -- 86
2020-03-20 01:00:00 7.6 2 Norte 10 Noroeste 0 -- -- 80
2020-03-20 00:00:00 8.4 5 Nordeste 27 Sudeste 0 -- -- 74
2020-03-19 23:00:00 9.4 10 Nordeste 31 Norte 0 -- -- 66
2020-03-19 22:00:00 9.4 12 Sudeste 38 Sudeste 0 -- -- 68
2020-03-19 21:00:00 9.6 12 Nordeste 42 Sudeste 0 -- -- 66
2020-03-19 20:00:00 9.7 24 Sudeste 43 Sudeste 0 -- -- 65
2020-03-19 19:00:00 10.1 8 Sudeste 20 Sudeste 0 -- -- 63
2020-03-19 18:00:00 10.5 3 Oeste 6 Nordeste 0 -- -- 72
2020-03-19 17:00:00 10.6 5 Nordeste 10 Nordeste 0 -- -- 66
2020-03-19 16:00:00 10.6 9 Nordeste 15 Nordeste 0 -- -- 65
2020-03-19 15:00:00 11 9 Nordeste 19 Nordeste 0 -- -- 65
2020-03-19 14:00:00 11 13 Nordeste 20 Nordeste 0 -- -- 62
2020-03-19 13:00:00 11.4 14 Nordeste 18 Nordeste 0 -- -- 63
2020-03-19 12:00:00 11.9 6 Norte 12 Nordeste 0 -- -- 59
2020-03-19 11:00:00 10.6 4 Oeste 9 Oeste 0 -- -- 66
2020-03-19 10:00:00 8.9 0 Calma 6 Norte 0 -- -- 70
2020-03-19 09:00:00 7.3 0 Calma 6 Oeste 0 -- -- 74
2020-03-19 08:00:00 6 3 Noroeste 5 Oeste 0 -- -- 84
2020-03-19 07:00:00 6.7 4 Este 20 Sudeste 0 -- -- 86
2020-03-19 06:00:00 7.4 4 Este 14 Nordeste 0 -- -- 84
2020-03-19 05:00:00 7.2 0 Calma 6 Sur 0 -- -- 83
2020-03-19 04:00:00 7.9 4 Sur 8 Sur 0 -- -- 80
2020-03-19 03:00:00 8.2 4 Sur 9 Sur 0 -- -- 79
2020-03-19 02:00:00 8.5 0 Calma 5 Sudeste 0 -- -- 75
2020-03-19 01:00:00 7.7 2 Sudeste 12 Nordeste 0 -- -- 77
2020-03-19 00:00:00 8.4 7 Nordeste 12 Nordeste 0 -- -- 74
2020-03-18 23:00:00 8.8 6 Este 9 Este 0 -- -- 74
2020-03-18 22:00:00 9.4 3 Nordeste 6 Sur 0 -- -- 71
2020-03-18 21:00:00 9.3 2 Este 7 Noroeste 0 -- -- 73
2020-03-18 20:00:00 9.7 0 Calma 12 Este 0 -- -- 75
2020-03-18 19:00:00 11.3 8 Este 15 Este 0 -- -- 68
2020-03-18 18:00:00 12.2 8 Nordeste 25 Nordeste 0 -- -- 63
2020-03-18 17:00:00 13.2 12 Nordeste 21 Nordeste 0 -- -- 61
2020-03-18 16:00:00 13.7 12 Este 28 Este 0 -- -- 58
2020-03-18 15:00:00 14.4 16 Sudeste 35 Sudeste 0 -- -- 52
2020-03-18 14:00:00 14 18 Este 45 Este 0 -- -- 56
2020-03-18 13:00:00 13.5 24 Este 42 Este 0 -- -- 57
2020-03-18 12:00:00 12.1 14 Nordeste 25 Nordeste 0 -- -- 61
2020-03-18 11:00:00 9.7 3 Este 9 Este 0 -- -- 79
2020-03-18 10:00:00 7.6 3 Oeste 13 Sudoeste 0 -- -- 82
2020-03-18 09:00:00 6.5 3 Oeste 9 Sur 0 -- -- 85
2020-03-18 08:00:00 5.6 5 Oeste 11 Nordeste 0 -- -- 86
2020-03-18 07:00:00 6.4 9 Sudeste 30 Sudeste 0 -- -- 77
2020-03-18 06:00:00 6 4 Este 23 Sudeste 0 -- -- 84
2020-03-18 05:00:00 6.4 9 Este 27 Este 0 -- -- 79
2020-03-18 04:00:00 6.6 14 Sudeste 19 Este 0 -- -- 80
2020-03-18 03:00:00 6.8 12 Sudeste 22 Este 0 -- -- 89
2020-03-18 02:00:00 6.6 9 Este 12 Este 0 -- -- 92
2020-03-18 01:00:00 6.6 4 Sur 8 Sur 0 -- -- 91
2020-03-18 00:00:00 6.5 5 Sur 13 Este 0 -- -- 90
2020-03-17 23:00:00 6.4 6 Sudeste 20 Este 0 -- -- 88
2020-03-17 22:00:00 7.2 12 Este 39 Este 0 -- -- 88
2020-03-17 21:00:00 8.2 22 Sudeste 35 Sudeste 0.2 -- -- 86
2020-03-17 20:00:00 8.2 18 Sudeste 28 Este 0 -- -- 82
2020-03-17 19:00:00 8.2 17 Este 27 Este 0 -- -- 80
2020-03-17 18:00:00 8.3 11 Este 27 Este 0 -- -- 79
2020-03-17 17:00:00 7.5 13 Este 27 Este 0 -- -- 81
2020-03-17 16:00:00 7.5 16 Este 24 Nordeste 0 -- -- 80
2020-03-17 15:00:00 7 15 Nordeste 27 Nordeste 0 -- -- 80
2020-03-17 14:00:00 6.3 12 Este 28 Sudeste 1.2 -- -- 83
2020-03-17 13:00:00 5 12 Este 24 Este 2.8 -- -- 87
2020-03-17 12:00:00 4 14 Este 20 Nordeste 2.8 -- -- 89
2020-03-17 11:00:00 3.5 4 Este 13 Sudeste 1.4 -- -- 96
2020-03-17 10:00:00 2.2 0 Calma 6 Nordeste 1.2 -- -- 100
2020-03-17 09:00:00 0.4 0 Calma -- -- 0 -- -- 100
2020-03-17 08:00:00 -0.2 0 Calma -- -- 0 -- -- 99
2020-03-17 07:00:00 -0.4 0 Calma -- -- 0 -- -- 100
2020-03-17 06:00:00 -1.6 0 Calma -- -- 0 -- -- 99
2020-03-17 05:00:00 -1.8 0 Calma -- -- 0 -- -- 98
2020-03-17 04:00:00 -1.9 0 Calma -- -- 0 -- -- 98
2020-03-17 03:00:00 -0.6 0 Calma -- -- 0 -- -- 99
2020-03-17 02:00:00 -0.4 0 Calma -- -- 0 -- -- 99
2020-03-17 01:00:00 -0.2 0 Calma -- -- 0.2 -- -- 99
2020-03-17 00:00:00 -0.1 0 Calma -- -- 0 -- -- 99
2020-03-16 23:00:00 0.1 0 Calma -- -- 0.2 -- -- 99
2020-03-16 22:00:00 0 0 Calma 10 Este 0 -- -- 99
2020-03-16 21:00:00 0.1 8 Este 13 Este 0.2 -- -- 99
2020-03-16 20:00:00 0.2 8 Este 17 Este 0.4 -- -- 99
2020-03-16 19:00:00 0.3 2 Nordeste 11 Nordeste 0.6 -- -- 98
2020-03-16 18:00:00 0.2 6 Nordeste 29 Nordeste 0.2 -- -- 98
2020-03-16 17:00:00 1.2 24 Norte 36 Norte 1.2 -- -- 98
2020-03-16 16:00:00 0.4 2 Sudoeste 14 Sudoeste 1.2 -- -- 97
2020-03-16 15:00:00 0 4 Sudoeste 10 Oeste 1.4 -- -- 98
2020-03-16 14:00:00 -0.2 8 Noroeste 21 Noroeste 1.4 -- -- 98
2020-03-16 13:00:00 -0.4 10 Noroeste 31 Norte 0.8 -- -- 97
2020-03-16 12:00:00 -0.6 20 Noroeste 42 Noroeste 0.4 -- -- 97
2020-03-16 11:00:00 -0.5 19 Noroeste 41 Noroeste 0 -- -- 96
2020-03-16 10:00:00 -0.8 15 Noroeste 28 Noroeste 0 -- -- 95
2020-03-16 09:00:00 -0.7 18 Sudoeste 28 Sudoeste 0 -- -- 90
2020-03-16 08:00:00 -0.7 14 Oeste 25 Oeste 0 -- -- 91
2020-03-16 07:00:00 -0.7 19 Oeste 34 Oeste 0 -- -- 91
2020-03-16 06:00:00 -0.5 19 Oeste 35 Oeste 0 -- -- 92
2020-03-16 05:00:00 -0.1 13 Oeste 25 Oeste 0 -- -- 89
2020-03-16 04:00:00 0 13 Oeste 24 Oeste 0 -- -- 89
2020-03-16 03:00:00 -0.1 15 Oeste 34 Oeste 0 -- -- 90
2020-03-16 02:00:00 0.8 25 Noroeste 34 Oeste 0 -- -- 89
2020-03-16 01:00:00 2.2 17 Oeste 33 Oeste 0 -- -- 79
2020-03-16 00:00:00 2 18 Oeste 41 Oeste 0.2 -- -- 88
2020-03-15 23:00:00 2.8 28 Oeste 44 Oeste 0 -- -- 89
2020-03-15 22:00:00 6.6 14 Oeste 27 Oeste 0 -- -- 77
2020-03-15 21:00:00 7.5 24 Oeste 36 Oeste 0 -- -- 75
2020-03-15 20:00:00 9 17 Oeste 45 Oeste 0 -- -- 75
2020-03-15 19:00:00 12.4 33 Sudoeste 82 Sudoeste 0 -- -- 52
2020-03-15 18:00:00 13.5 22 Sudoeste 61 Sudoeste 0 -- -- 49
2020-03-15 17:00:00 14.8 33 Oeste 48 Oeste 0 -- -- 48
2020-03-15 16:00:00 15.8 24 Sudoeste 48 Sur 0 -- -- 44
2020-03-15 15:00:00 16.9 28 Sudoeste 51 Sudoeste 0 -- -- 39
2020-03-15 14:00:00 17.5 21 Sur 37 Sur 0 -- -- 44
2020-03-15 13:00:00 17.2 20 Sur 36 Sur 0 -- -- 39
2020-03-15 12:00:00 15.7 24 Oeste 40 Oeste 0 -- -- 54
2020-03-15 11:00:00 14.9 7 Nordeste 11 Este 0 -- -- 57
2020-03-15 10:00:00 11.5 5 Norte 11 Norte 0 -- -- 59
2020-03-15 09:00:00 9 0 Calma 8 Sur 0 -- -- 59
2020-03-15 08:00:00 6.7 0 Calma 12 Sur 0 -- -- 60
2020-03-15 07:00:00 5.3 4 Oeste 9 Este 0 -- -- 64
2020-03-15 06:00:00 5.5 4 Noroeste 11 Noroeste 0 -- -- 63
2020-03-15 05:00:00 4.7 5 Oeste 10 Oeste 0 -- -- 66
2020-03-15 04:00:00 4.8 0 Calma 8 Oeste 0 -- -- 65
2020-03-15 03:00:00 5.8 0 Calma 9 Sur 0 -- -- 61
2020-03-15 02:00:00 6.8 6 Sur 12 Sur 0 -- -- 60
2020-03-15 01:00:00 7.4 2 Oeste 10 Sur 0 -- -- 57
2020-03-15 00:00:00 7 0 Calma 6 Sur 0 -- -- 58
2020-03-14 23:00:00 8.1 0 Calma 3 Oeste 0 -- -- 57
2020-03-14 22:00:00 8.8 2 Oeste 14 Sur 0 -- -- 52
2020-03-14 21:00:00 10.3 12 Sur 14 Sur 0 -- -- 48
2020-03-14 20:00:00 11.6 8 Sur 10 Sur 0 -- -- 47
2020-03-14 19:00:00 14.3 3 Nordeste 14 Nordeste 0 -- -- 43
2020-03-14 18:00:00 16.4 9 Nordeste 14 Nordeste 0 -- -- 32
2020-03-14 17:00:00 17.5 8 Este 15 Nordeste 0 -- -- 30
2020-03-14 16:00:00 17.4 6 Nordeste 13 Nordeste 0 -- -- 32
2020-03-14 15:00:00 17.4 5 Este 15 Nordeste 0 -- -- 27
2020-03-14 14:00:00 16.6 8 Este 15 Este 0 -- -- 28
2020-03-14 13:00:00 15.5 5 Nordeste 14 Este 0 -- -- 30
2020-03-14 12:00:00 13.9 5 Nordeste 9 Nordeste 0 -- -- 37
2020-03-14 11:00:00 11.9 4 Este 9 Este 0 -- -- 69
2020-03-14 10:00:00 10 2 Nordeste 6 Norte 0 -- -- 76
2020-03-14 09:00:00 7.1 2 Sur 5 Sur 0 -- -- 85
2020-03-14 08:00:00 5.2 0 Calma 6 Sur 0 -- -- 86
2020-03-14 07:00:00 4.5 0 Calma 10 Sur 0 -- -- 89
2020-03-14 06:00:00 5.2 9 Sur 12 Sur 0 -- -- 93
2020-03-14 05:00:00 4.9 2 Sur 9 Sur 0 -- -- 91
2020-03-14 04:00:00 6.2 3 Sur 9 Sur 0 -- -- 84
2020-03-14 03:00:00 6.3 8 Sur 15 Sur 0 -- -- 92
2020-03-14 02:00:00 7.1 5 Norte 10 Noroeste 0 -- -- 87
2020-03-14 01:00:00 7.9 5 Sur 12 Sur 0 -- -- 90
2020-03-14 00:00:00 7.4 4 Oeste 9 Sudeste 0 -- -- 88
2020-03-13 23:00:00 8.3 7 Sur 10 Sur 0 -- -- 83
2020-03-13 22:00:00 9.9 3 Sudeste 9 Este 0 -- -- 80
2020-03-13 21:00:00 11.3 4 Sur 16 Noroeste 0 -- -- 77
2020-03-13 20:00:00 11.9 6 Norte 16 Noroeste 0 -- -- 77
2020-03-13 19:00:00 12.6 4 Este 15 Norte 0 -- -- 74
2020-03-13 18:00:00 13.3 12 Norte 23 Este 0 -- -- 72
2020-03-13 17:00:00 14.2 9 Nordeste 17 Nordeste 0 -- -- 69
2020-03-13 16:00:00 15.3 6 Nordeste 15 Este 0 -- -- 68
2020-03-13 15:00:00 14.9 5 Nordeste 12 Este 0 -- -- 70
2020-03-13 14:00:00 14.3 8 Nordeste 14 Nordeste 0 -- -- 70
2020-03-13 13:00:00 12.8 3 Este 10 Nordeste 0 -- -- 76
2020-03-13 12:00:00 9.8 4 Este 8 Nordeste 0 -- -- 91
2020-03-13 11:00:00 7.2 3 Nordeste 8 Nordeste 0 -- -- 94
2020-03-13 10:00:00 6 4 Nordeste 9 Nordeste 0 -- -- 92
2020-03-13 09:00:00 7.4 3 Nordeste 8 Sur 0 -- -- 84
2020-03-13 08:00:00 5.9 7 Sur 9 Sur 0 -- -- 91
2020-03-13 07:00:00 5.5 0 Calma 8 Oeste 0 -- -- 89
2020-03-13 06:00:00 6.3 3 Sudoeste 8 Oeste 0 -- -- 87
2020-03-13 05:00:00 7.8 3 Oeste 10 Sur 0 -- -- 79
2020-03-13 04:00:00 7.7 4 Oeste 12 Oeste 0 -- -- 79
2020-03-13 03:00:00 10 9 Sur 12 Sudoeste 0 -- -- 73
2020-03-13 02:00:00 10.4 0 Calma 3 Sur 0 -- -- 74
2020-03-13 01:00:00 10.7 2 Nordeste 6 Oeste 0 -- -- 72
2020-03-13 00:00:00 12.4 7 Sur 13 Sur 0 -- -- 66
2020-03-12 23:00:00 12.2 8 Sur 13 Sudoeste 0 -- -- 65
2020-03-12 22:00:00 12.4 4 Sur 7 Sur 0 -- -- 65
2020-03-12 21:00:00 13.5 4 Sudoeste 14 Sudoeste 0 -- -- 59
2020-03-12 20:00:00 14.6 13 Sudoeste 24 Oeste 0 -- -- 58
2020-03-12 19:00:00 16.2 15 Oeste 23 Sudoeste 0 -- -- 56
2020-03-12 18:00:00 18.9 12 Sudoeste 24 Sudoeste 0 -- -- 49
2020-03-12 17:00:00 20.8 12 Oeste 22 Oeste 0 -- -- 43
2020-03-12 16:00:00 21 9 Norte 36 Sudeste 0 -- -- 42
2020-03-12 15:00:00 21.9 18 Sudeste 34 Sudeste 0 -- -- 35
2020-03-12 14:00:00 21.2 23 Sudeste 38 Sur 0 -- -- 35
2020-03-12 13:00:00 20.5 8 Nordeste 15 Norte 0 -- -- 40
2020-03-12 12:00:00 17.4 2 Nordeste 6 Nordeste 0 -- -- 49
2020-03-12 11:00:00 15.2 0 Calma 5 Sudeste 0 -- -- 57
2020-03-12 10:00:00 13.3 0 Calma 16 Sur 0 -- -- 59
2020-03-12 09:00:00 10.9 5 Sur 11 Sur 0 -- -- 60
2020-03-12 08:00:00 10.6 3 Este 11 Sur 0 -- -- 59
2020-03-12 07:00:00 10 3 Sur 15 Sur 0 -- -- 61
2020-03-12 06:00:00 10.2 3 Sudeste 10 Sudoeste 0 -- -- 61
2020-03-12 05:00:00 10.6 3 Sur 9 Sur 0 -- -- 59
2020-03-12 04:00:00 10.7 0 Calma 12 Sur 0 -- -- 59
2020-03-12 03:00:00 11.3 2 Sur 15 Sur 0 -- -- 61
2020-03-12 02:00:00 10.9 2 Sur 13 Sur 0 -- -- 64
2020-03-12 01:00:00 11.7 0 Calma 12 Sur 0 -- -- 59
2020-03-12 00:00:00 12.3 2 Oeste 14 Sur 0 -- -- 56
2020-03-11 23:00:00 12.4 2 Sudoeste 9 Sur 0 -- -- 59
2020-03-11 22:00:00 14.9 2 Sur 12 Sur 0 -- -- 49
2020-03-11 21:00:00 15.9 6 Sur 10 Sur 0 -- -- 52
2020-03-11 20:00:00 16.7 7 Sur 16 Oeste 0 -- -- 50
2020-03-11 19:00:00 18.4 13 Oeste 18 Noroeste 0 -- -- 50
2020-03-11 18:00:00 20.2 14 Oeste 28 Oeste 0 -- -- 45
2020-03-11 17:00:00 20.9 21 Oeste 32 Oeste 0 -- -- 41
2020-03-11 16:00:00 22.6 23 Oeste 34 Oeste 0 -- -- 34
2020-03-11 15:00:00 22.8 23 Oeste 31 Oeste 0 -- -- 33
2020-03-11 14:00:00 22.8 22 Oeste 32 Oeste 0 -- -- 32
2020-03-11 13:00:00 22.3 22 Oeste 31 Oeste 0 -- -- 33
2020-03-11 12:00:00 20.2 4 Nordeste 9 Noroeste 0 -- -- 48
2020-03-11 11:00:00 16.4 3 Nordeste 6 Nordeste 0 -- -- 65
2020-03-11 10:00:00 12.9 0 Calma 3 Oeste 0 -- -- 68
2020-03-11 09:00:00 10.9 0 Calma 4 Sur 0 -- -- 69
2020-03-11 08:00:00 8 0 Calma 3 Noroeste 0 -- -- 76
2020-03-11 07:00:00 7.5 0 Calma 6 Sur 0 -- -- 76
2020-03-11 06:00:00 8.6 3 Sur 8 Sur 0 -- -- 73
2020-03-11 05:00:00 8.7 0 Calma 3 Oeste 0 -- -- 74
2020-03-11 04:00:00 8.2 0 Calma 4 Oeste 0 -- -- 77
2020-03-11 03:00:00 8.6 2 Sur 4 Sur 0 -- -- 76
2020-03-11 02:00:00 8.8 2 Este 9 Sur 0 -- -- 73
2020-03-11 01:00:00 11.4 5 Sur 12 Sur 0 -- -- 66
2020-03-11 00:00:00 11.7 4 Sudeste 10 Sur 0 -- -- 64
2020-03-10 23:00:00 12.4 5 Sur 12 Sur 0 -- -- 61
2020-03-10 22:00:00 13.1 5 Sur 12 Sur 0 -- -- 56
2020-03-10 21:00:00 13.4 4 Sudoeste 16 Oeste 0 -- -- 59
2020-03-10 20:00:00 15.4 12 Sudoeste 15 Oeste 0 -- -- 53
2020-03-10 19:00:00 17.6 7 Oeste 26 Oeste 0 -- -- 49
2020-03-10 18:00:00 20.1 17 Oeste 26 Oeste 0 -- -- 42
2020-03-10 17:00:00 20.3 17 Oeste 27 Oeste 0 -- -- 41
2020-03-10 16:00:00 20.3 21 Oeste 35 Oeste 0 -- -- 37
2020-03-10 15:00:00 20.3 24 Oeste 36 Oeste 0 -- -- 36
2020-03-10 14:00:00 20.4 20 Oeste 28 Oeste 0 -- -- 38
2020-03-10 13:00:00 18.1 3 Nordeste 8 Este 0 -- -- 47
2020-03-10 12:00:00 14.9 3 Nordeste 6 Nordeste 0 -- -- 60
2020-03-10 11:00:00 12.3 4 Nordeste 6 Nordeste 0 -- -- 61
2020-03-10 10:00:00 9.1 0 Calma 5 Oeste 0 -- -- 69
2020-03-10 09:00:00 5.8 4 Oeste 7 Sur 0 -- -- 77
2020-03-10 08:00:00 4.6 2 Sudoeste 11 Sur 0 -- -- 76
2020-03-10 07:00:00 4.5 0 Calma 8 Oeste 0 -- -- 76
2020-03-10 06:00:00 5.4 3 Sur 5 Sur 0 -- -- 72
2020-03-10 05:00:00 5.7 2 Sudeste 7 Sur 0 -- -- 70
2020-03-10 04:00:00 6.5 3 Sur 9 Sur 0 -- -- 67
2020-03-10 03:00:00 6.8 9 Sur 12 Sur 0 -- -- 67
2020-03-10 02:00:00 5.4 2 Sur 9 Oeste 0 -- -- 69
2020-03-10 01:00:00 5.3 5 Sur 8 Sur 0 -- -- 68
2020-03-10 00:00:00 6.5 6 Sur 9 Sur 0 -- -- 63
2020-03-09 23:00:00 6.1 0 Calma 12 Oeste 0 -- -- 62
2020-03-09 22:00:00 6 7 Oeste 23 Oeste 0 -- -- 65
2020-03-09 21:00:00 6 14 Oeste 19 Oeste 0 -- -- 64
2020-03-09 20:00:00 7.8 9 Oeste 21 Oeste 0 -- -- 56
2020-03-09 19:00:00 9.7 9 Oeste 23 Oeste 0 -- -- 50
2020-03-09 18:00:00 11.3 12 Noroeste 22 Noroeste 0 -- -- 45
2020-03-09 17:00:00 12.4 14 Oeste 24 Oeste 0 -- -- 36
2020-03-09 16:00:00 12.4 11 Oeste 29 Noroeste 0 -- -- 35
2020-03-09 15:00:00 12.7 16 Noroeste 30 Oeste 0 -- -- 30
2020-03-09 14:00:00 12.4 17 Oeste 36 Oeste 0 -- -- 33
2020-03-09 13:00:00 11.9 18 Noroeste 29 Noroeste 0 -- -- 37
2020-03-09 12:00:00 11.1 13 Noroeste 28 Oeste 0 -- -- 35
2020-03-09 11:00:00 8.8 12 Oeste 34 Oeste 0 -- -- 63
2020-03-09 10:00:00 5.7 22 Oeste 34 Oeste 0 -- -- 80
2020-03-09 09:00:00 4.2 16 Oeste 30 Oeste 0 -- -- 85
2020-03-09 08:00:00 2.2 3 Sur 15 Sudoeste 0 -- -- 82
2020-03-09 07:00:00 2.6 16 Oeste 32 Noroeste 0 -- -- 87
2020-03-09 06:00:00 3.4 19 Noroeste 26 Noroeste 0 -- -- 89
2020-03-09 05:00:00 4 14 Noroeste 41 Oeste 0 -- -- 85
2020-03-09 04:00:00 4.7 15 Noroeste 31 Oeste 0 -- -- 81
2020-03-09 03:00:00 5.4 18 Oeste 31 Oeste 0 -- -- 80
2020-03-09 02:00:00 5.5 17 Oeste 40 Oeste 0 -- -- 85
2020-03-09 01:00:00 6 26 Oeste 43 Oeste 0 -- -- 81
2020-03-09 00:00:00 6.5 23 Oeste 44 Oeste 0 -- -- 76
2020-03-08 23:00:00 7 27 Oeste 41 Oeste 0 -- -- 76
2020-03-08 22:00:00 6.9 18 Oeste 37 Oeste 0 -- -- 76
2020-03-08 21:00:00 7.4 19 Oeste 39 Oeste 0 -- -- 85
2020-03-08 20:00:00 8.1 17 Oeste 30 Oeste 0 -- -- 83
2020-03-08 19:00:00 9 17 Oeste 35 Oeste 0 -- -- 76
2020-03-08 18:00:00 9.7 15 Oeste 35 Oeste 0 -- -- 69
2020-03-08 17:00:00 10.5 19 Oeste 46 Oeste 0 -- -- 60
2020-03-08 16:00:00 11.2 24 Oeste 43 Oeste 0 -- -- 49
2020-03-08 15:00:00 9.7 17 Oeste 37 Oeste 0.2 -- -- 64
2020-03-08 14:00:00 13.2 18 Oeste 31 Oeste 0 -- -- 36
2020-03-08 13:00:00 12.3 15 Oeste 28 Sudoeste 0 -- -- 33
2020-03-08 12:00:00 8.6 5 Este 9 Este 0 -- -- 53
2020-03-08 11:00:00 6.8 4 Este 6 Este 0 -- -- 69
2020-03-08 10:00:00 3.2 0 Calma 5 Este 0 -- -- 76
2020-03-08 09:00:00 0.1 2 Noroeste 8 Sur 0 -- -- 80
2020-03-08 08:00:00 -2.3 0 Calma 8 Noroeste 0 -- -- 85
2020-03-08 07:00:00 -1.8 2 Sudeste 6 Sur 0 -- -- 79
2020-03-08 06:00:00 -0.9 5 Sur 7 Sur 0 -- -- 69
2020-03-08 05:00:00 -0.7 0 Calma 12 Sur 0 -- -- 81
2020-03-08 04:00:00 0.2 0 Calma 13 Sur 0 -- -- 77
2020-03-08 03:00:00 1.1 2 Sur 8 Sur 0 -- -- 74
2020-03-08 02:00:00 2.2 0 Calma 7 Sur 0 -- -- 71
2020-03-08 01:00:00 2.3 5 Sudoeste 10 Sur 0 -- -- 72
2020-03-08 00:00:00 3.2 6 Sur 10 Sur 0 -- -- 73
2020-03-07 23:00:00 4.3 6 Sur 13 Sur 0 -- -- 69
2020-03-07 22:00:00 4.8 10 Sur 13 Sur 0 -- -- 68
2020-03-07 21:00:00 5.3 7 Sudoeste 12 Sur 0 -- -- 71
2020-03-07 20:00:00 6.7 4 Sudoeste 14 Oeste 0 -- -- 71
2020-03-07 19:00:00 9 12 Noroeste 21 Noroeste 0 -- -- 65
2020-03-07 18:00:00 11 15 Noroeste 24 Noroeste 0 -- -- 55
2020-03-07 17:00:00 11.2 12 Noroeste 18 Noroeste 0 -- -- 58
2020-03-07 16:00:00 11.6 10 Noroeste 18 Norte 0 -- -- 58
2020-03-07 15:00:00 11.8 4 Nordeste 10 Norte 0 -- -- 55
2020-03-07 14:00:00 10.3 3 Nordeste 13 Este 0 -- -- 55
2020-03-07 13:00:00 8.6 5 Norte 17 Este 0 -- -- 59
2020-03-07 12:00:00 8.7 7 Este 15 Sudeste 0 -- -- 61
2020-03-07 11:00:00 7.1 4 Noroeste 14 Noroeste 0 -- -- 66
2020-03-07 10:00:00 6.2 9 Oeste 25 Oeste 0 -- -- 71
2020-03-07 09:00:00 4.5 16 Oeste 24 Oeste 0 -- -- 74
2020-03-07 08:00:00 3.2 15 Oeste 26 Oeste 0 -- -- 77
2020-03-07 07:00:00 2.2 12 Oeste 28 Oeste 0 -- -- 79
2020-03-07 06:00:00 2.2 12 Oeste 25 Oeste 0 -- -- 77
2020-03-07 05:00:00 1.9 12 Oeste 28 Oeste 0 -- -- 75
2020-03-07 04:00:00 1.8 14 Oeste 28 Sudoeste 0 -- -- 69
2020-03-07 03:00:00 1.5 11 Oeste 25 Sudoeste 0 -- -- 73
2020-03-07 02:00:00 1.6 18 Sudoeste 33 Oeste 0 -- -- 73
2020-03-07 01:00:00 1.7 18 Sudoeste 37 Sudoeste 0 -- -- 74
2020-03-07 00:00:00 2.1 22 Sudoeste 39 Sudoeste 0 -- -- 74
2020-03-06 23:00:00 2.3 14 Sudoeste 36 Oeste 0 -- -- 72
2020-03-06 22:00:00 2.8 19 Oeste 31 Oeste 0 -- -- 71
2020-03-06 21:00:00 3.3 16 Oeste 55 Oeste 0 -- -- 72
2020-03-06 20:00:00 3.9 26 Oeste 48 Sudoeste 0 -- -- 69
2020-03-06 19:00:00 4.6 28 Oeste 48 Oeste 0 -- -- 67
2020-03-06 18:00:00 5.7 31 Oeste 46 Oeste 0 -- -- 62
2020-03-06 17:00:00 5.9 32 Oeste 54 Oeste 0 -- -- 62
2020-03-06 16:00:00 6 37 Oeste 53 Noroeste 0 -- -- 61
2020-03-06 15:00:00 5.8 40 Oeste 60 Oeste 0 -- -- 60
2020-03-06 14:00:00 4.9 45 Oeste 65 Oeste 0 -- -- 67
2020-03-06 13:00:00 4.7 42 Oeste 71 Oeste 0.2 -- -- 72
2020-03-06 12:00:00 4.3 41 Oeste 79 Oeste 0 -- -- 78
2020-03-06 11:00:00 3 40 Oeste 69 Oeste 0 -- -- 83
2020-03-06 10:00:00 2.3 39 Oeste 63 Oeste 0 -- -- 82
2020-03-06 09:00:00 2 33 Oeste 58 Oeste 0 -- -- 81
2020-03-06 08:00:00 2.1 40 Oeste 60 Oeste 0.2 -- -- 83
2020-03-06 07:00:00 2.7 33 Oeste 57 Oeste 0.6 -- -- 89
2020-03-06 06:00:00 2.7 35 Oeste 62 Oeste 0.2 -- -- 88
2020-03-06 05:00:00 3.1 44 Oeste 66 Oeste 0.4 -- -- 85
2020-03-06 04:00:00 3.3 32 Oeste 74 Sudoeste 0 -- -- 84
2020-03-06 03:00:00 3.4 37 Oeste 63 Oeste 0 -- -- 80
2020-03-06 02:00:00 3.1 39 Oeste 58 Oeste 0 -- -- 80
2020-03-06 01:00:00 3.2 33 Oeste 59 Oeste 0 -- -- 81
2020-03-06 00:00:00 3.5 33 Oeste 55 Oeste 0 -- -- 80
2020-03-05 23:00:00 4 30 Oeste 55 Oeste 0 -- -- 81
2020-03-05 22:00:00 4.4 33 Oeste 53 Oeste 0 -- -- 80
2020-03-05 21:00:00 5 32 Oeste 59 Oeste 0 -- -- 80
2020-03-05 20:00:00 6 28 Oeste 46 Oeste 0 -- -- 76
2020-03-05 19:00:00 7.2 31 Oeste 54 Oeste 0 -- -- 67
2020-03-05 18:00:00 8.4 33 Oeste 66 Oeste 0 -- -- 63
2020-03-05 17:00:00 8.8 38 Oeste 64 Oeste 0 -- -- 67
2020-03-05 16:00:00 8.5 44 Oeste 73 Oeste 0 -- -- 67
2020-03-05 15:00:00 8.4 40 Oeste 62 Oeste 0 -- -- 68
2020-03-05 14:00:00 8.4 39 Oeste 66 Oeste 0 -- -- 70
2020-03-05 13:00:00 7.6 44 Oeste 63 Oeste 0 -- -- 71
2020-03-05 12:00:00 6.8 41 Oeste 60 Oeste 0.4 -- -- 79
2020-03-05 11:00:00 5.7 32 Oeste 66 Sudoeste 3 -- -- 88
2020-03-05 10:00:00 9.1 38 Oeste 67 Sur 0.8 -- -- 83
2020-03-05 09:00:00 10.5 42 Sudoeste 75 Sudoeste 0 -- -- 69
2020-03-05 08:00:00 9.3 33 Sudoeste 61 Sudoeste 0 -- -- 77
2020-03-05 07:00:00 10.7 35 Sudoeste 71 Sudoeste 0 -- -- 67
2020-03-05 06:00:00 10.8 29 Sudoeste 64 Sudoeste 0 -- -- 59
2020-03-05 05:00:00 9.1 5 Oeste 48 Oeste 0 -- -- 74
2020-03-05 04:00:00 9.1 12 Oeste 30 Noroeste 0 -- -- 75
2020-03-05 03:00:00 9.4 17 Oeste 32 Sudoeste 0 -- -- 75
2020-03-05 02:00:00 9.2 7 Noroeste 38 Sudoeste 0 -- -- 76
2020-03-05 01:00:00 10.2 24 Sudoeste 49 Sudoeste 0 -- -- 69
2020-03-05 00:00:00 10.3 27 Sudoeste 45 Oeste 0 -- -- 69